Time;durP1;ratioP1;P1;durP2;ratioP2;P2;SDS_P1;SDS_P2;PMS_P1;PMS_P2;Temp;Humidity;BMP_temperature;BMP_pressure;BME280_temperature;BME280_humidity;BME280_pressure;Samples;Min_cycle;Max_cycle;Signal;HPM_P1;HPM_P2
2022/09/11 00:00:52;;;;;;;;;;;23.20;95.70;;;;;;5032540;28;20309;-57
2022/09/11 00:03:20;;;;;;;;;;;23.20;95.70;;;;;;5049680;28;19929;-59
2022/09/11 00:05:47;;;;;;;;;;;23.20;95.70;;;;;;5040555;28;20239;-58
2022/09/11 00:08:15;;;;;;;;;;;23.20;95.70;;;;;;5050036;28;19940;-59
2022/09/11 00:10:43;;;;;;;;;;;23.10;95.70;;;;;;5051348;28;19925;-59
2022/09/11 00:13:21;;;;;;;;;;;23.20;95.70;;;;;;5043941;28;19932;-58
2022/09/11 00:15:49;;;;;;;;;;;23.20;95.70;;;;;;5029805;28;19928;-57
2022/09/11 00:18:20;;;;;;;;;;;23.10;95.70;;;;;;5049846;28;19929;-54
2022/09/11 00:20:55;;;;;;;;;;;23.20;95.70;;;;;;5032159;28;19936;-58
2022/09/11 00:23:23;;;;;;;;;;;23.20;95.80;;;;;;5049156;28;19928;-58
2022/09/11 00:25:51;;;;;;;;;;;23.20;95.90;;;;;;5047631;28;19936;-57
2022/09/11 00:28:19;;;;;;;;;;;23.20;95.90;;;;;;5041865;28;19929;-59
2022/09/11 00:30:55;;;;;;;;;;;23.10;95.90;;;;;;5049559;28;19996;-58
2022/09/11 00:33:22;;;;;;;;;;;23.20;96.00;;;;;;5041865;28;19948;-60
2022/09/11 00:36:11;;;;;;;;;;;23.10;95.90;;;;;;5046188;28;19925;-58
2022/09/11 00:38:39;;;;;;;;;;;23.10;95.90;;;;;;5045617;28;19929;-56
2022/09/11 00:41:07;;;;;;;;;;;23.10;95.90;;;;;;5044729;28;19929;-56
2022/09/11 00:44:07;;;;;;;;;;;23.10;95.90;;;;;;5049037;28;19924;-54
2022/09/11 00:46:34;;;;;;;;;;;23.10;95.90;;;;;;5003274;28;20352;-54
2022/09/11 00:49:06;;;;;;;;;;;23.10;95.90;;;;;;5027705;28;20305;-56
2022/09/11 00:51:35;;;;;;;;;;;23.10;95.90;;;;;;5023426;28;19928;-57
2022/09/11 00:54:03;;;;;;;;;;;23.10;95.90;;;;;;5041031;28;20304;-58
2022/09/11 00:56:31;;;;;;;;;;;23.10;95.90;;;;;;5045744;28;19936;-57
2022/09/11 00:58:59;;;;;;;;;;;23.10;95.90;;;;;;5043935;28;20709;-57
2022/09/11 01:01:27;;;;;;;;;;;23.10;95.90;;;;;;5029698;28;19929;-57
2022/09/11 01:03:54;;;;;;;;;;;23.10;95.90;;;;;;5048020;28;20316;-56
2022/09/11 01:06:23;;;;;;;;;;;23.10;95.90;;;;;;5044222;28;19925;-57
2022/09/11 01:08:51;;;;;;;;;;;23.10;95.80;;;;;;5045908;28;19925;-57
2022/09/11 01:11:39;;;;;;;;;;;23.10;95.80;;;;;;5030021;28;20395;-58
2022/09/11 01:14:12;;;;;;;;;;;23.10;95.80;;;;;;5025732;28;20324;-56
2022/09/11 01:16:41;;;;;;;;;;;23.10;95.80;;;;;;5045475;28;19929;-58
2022/09/11 01:19:14;;;;;;;;;;;23.10;95.90;;;;;;5041354;28;19936;-54
2022/09/11 01:21:59;;;;;;;;;;;23.10;95.80;;;;;;5047259;28;20316;-54
2022/09/11 01:24:45;;;;;;;;;;;23.10;95.80;;;;;;5026077;28;19936;-57
2022/09/11 01:27:31;;;;;;;;;;;23.10;95.90;;;;;;5046939;28;20404;-56
2022/09/11 01:30:01;;;;;;;;;;;23.10;95.90;;;;;;5019608;28;19929;-58
2022/09/11 01:32:40;;;;;;;;;;;23.10;95.80;;;;;;5029418;28;19929;-59
2022/09/11 01:35:23;;;;;;;;;;;23.00;95.80;;;;;;5043262;28;20293;-56
2022/09/11 01:38:03;;;;;;;;;;;23.00;95.80;;;;;;5035350;28;19928;-56
2022/09/11 01:40:44;;;;;;;;;;;23.00;95.80;;;;;;5048832;28;19925;-58
2022/09/11 01:43:15;;;;;;;;;;;23.00;95.80;;;;;;5029848;28;19929;-56
2022/09/11 01:45:44;;;;;;;;;;;23.00;95.80;;;;;;5030609;28;20296;-58
2022/09/11 01:48:14;;;;;;;;;;;23.10;95.90;;;;;;5045070;28;19929;-58
2022/09/11 01:50:43;;;;;;;;;;;23.00;95.80;;;;;;5048561;28;19929;-60
2022/09/11 01:53:13;;;;;;;;;;;23.10;95.90;;;;;;5038138;28;19929;-58
2022/09/11 01:55:47;;;;;;;;;;;23.00;95.90;;;;;;5011349;28;20211;-57
2022/09/11 01:58:19;;;;;;;;;;;23.00;95.90;;;;;;5006944;28;19936;-56
2022/09/11 02:00:48;;;;;;;;;;;23.10;95.90;;;;;;5045509;28;19932;-54
2022/09/11 02:03:18;;;;;;;;;;;23.00;95.80;;;;;;5045661;28;19928;-57
2022/09/11 02:05:47;;;;;;;;;;;23.00;95.90;;;;;;5023150;28;19929;-56
2022/09/11 02:08:28;;;;;;;;;;;23.00;95.80;;;;;;5024458;28;20256;-60
2022/09/11 02:11:02;;;;;;;;;;;23.10;95.90;;;;;;5040793;28;19929;-57
2022/09/11 02:13:41;;;;;;;;;;;23.00;95.80;;;;;;5044393;28;19936;-55
2022/09/11 02:16:15;;;;;;;;;;;23.00;95.80;;;;;;5045328;28;19929;-57
2022/09/11 02:18:56;;;;;;;;;;;23.00;95.90;;;;;;5029240;28;19947;-59
2022/09/11 02:21:23;;;;;;;;;;;23.00;95.80;;;;;;5045447;28;20302;-60
2022/09/11 02:23:50;;;;;;;;;;;23.00;95.80;;;;;;5031492;28;19929;-60
2022/09/11 02:26:18;;;;;;;;;;;23.00;95.80;;;;;;5033203;28;19936;-57
2022/09/11 02:28:46;;;;;;;;;;;23.00;96.00;;;;;;5048773;28;19928;-59
2022/09/11 02:31:13;;;;;;;;;;;23.00;95.80;;;;;;5028696;28;19936;-56
2022/09/11 02:33:42;;;;;;;;;;;23.00;95.80;;;;;;5050444;28;19932;-52
2022/09/11 02:36:09;;;;;;;;;;;23.00;95.80;;;;;;5030750;28;19932;-55
2022/09/11 02:38:54;;;;;;;;;;;23.00;95.80;;;;;;5026532;28;20347;-58
2022/09/11 02:41:30;;;;;;;;;;;23.00;95.80;;;;;;5028853;28;20324;-56
2022/09/11 02:43:58;;;;;;;;;;;23.00;95.80;;;;;;5009058;28;19933;-54
2022/09/11 02:46:37;;;;;;;;;;;23.00;95.80;;;;;;5041712;28;19925;-56
2022/09/11 02:49:19;;;;;;;;;;;23.00;95.80;;;;;;5025488;28;19928;-55
2022/09/11 02:51:55;;;;;;;;;;;23.00;95.80;;;;;;5032268;28;19940;-54
2022/09/11 02:54:27;;;;;;;;;;;23.00;96.00;;;;;;5040314;28;19936;-55
2022/09/11 02:57:01;;;;;;;;;;;23.00;95.80;;;;;;5026705;28;19925;-52
2022/09/11 02:59:37;;;;;;;;;;;23.00;95.80;;;;;;5030966;28;19936;-57
2022/09/11 03:02:08;;;;;;;;;;;23.00;95.80;;;;;;5042940;28;20308;-59
2022/09/11 03:04:36;;;;;;;;;;;23.00;95.80;;;;;;5029406;28;19936;-57
2022/09/11 03:07:04;;;;;;;;;;;22.90;95.80;;;;;;5030854;28;19928;-55
2022/09/11 03:09:33;;;;;;;;;;;23.00;95.80;;;;;;5040104;28;20418;-53
2022/09/11 03:12:06;;;;;;;;;;;23.00;95.80;;;;;;5016782;28;20285;-54
2022/09/11 03:14:37;;;;;;;;;;;23.00;95.80;;;;;;5024729;28;19928;-58
2022/09/11 03:17:04;;;;;;;;;;;22.90;95.70;;;;;;5022556;28;19936;-54
2022/09/11 03:19:33;;;;;;;;;;;23.00;95.80;;;;;;5028714;28;20342;-56
2022/09/11 03:22:01;;;;;;;;;;;23.00;95.80;;;;;;5043997;28;20388;-55
2022/09/11 03:24:29;;;;;;;;;;;23.00;95.80;;;;;;5031780;28;19936;-59
2022/09/11 03:26:56;;;;;;;;;;;23.00;95.80;;;;;;5049869;28;19929;-56
2022/09/11 03:29:23;;;;;;;;;;;23.00;95.80;;;;;;5046447;28;19928;-57
2022/09/11 03:31:51;;;;;;;;;;;22.90;95.80;;;;;;5048099;28;20388;-58
2022/09/11 03:34:18;;;;;;;;;;;22.90;95.70;;;;;;5042602;28;19929;-55
2022/09/11 03:36:46;;;;;;;;;;;23.00;95.80;;;;;;5030881;28;19933;-59
2022/09/11 03:39:14;;;;;;;;;;;22.90;95.70;;;;;;5029414;28;19935;-56
2022/09/11 03:41:41;;;;;;;;;;;22.90;95.80;;;;;;5026725;28;19951;-52
2022/09/11 03:44:08;;;;;;;;;;;22.90;95.80;;;;;;5049057;28;19936;-58
2022/09/11 03:46:35;;;;;;;;;;;22.90;95.80;;;;;;5050767;28;19935;-57
2022/09/11 03:49:03;;;;;;;;;;;22.90;95.70;;;;;;5032499;28;19936;-51
2022/09/11 03:51:30;;;;;;;;;;;22.90;95.70;;;;;;5026369;28;19936;-58
2022/09/11 03:54:01;;;;;;;;;;;22.90;95.70;;;;;;5043206;28;19940;-53
2022/09/11 03:56:29;;;;;;;;;;;22.90;95.70;;;;;;5047516;28;19929;-54
2022/09/11 03:58:58;;;;;;;;;;;22.90;95.80;;;;;;5032403;28;20000;-57
2022/09/11 04:01:26;;;;;;;;;;;22.90;95.80;;;;;;5037645;28;19929;-52
2022/09/11 04:03:54;;;;;;;;;;;22.90;95.70;;;;;;5029242;28;19925;-59
2022/09/11 04:06:31;;;;;;;;;;;22.90;95.80;;;;;;5026981;28;19928;-57
2022/09/11 04:08:59;;;;;;;;;;;22.90;95.80;;;;;;5041308;28;19936;-57
2022/09/11 04:11:26;;;;;;;;;;;22.90;95.70;;;;;;5045389;28;19929;-56
2022/09/11 04:13:55;;;;;;;;;;;22.90;95.70;;;;;;5024246;28;19924;-54
2022/09/11 04:16:25;;;;;;;;;;;22.90;95.80;;;;;;5029996;28;20305;-56
2022/09/11 04:18:54;;;;;;;;;;;22.90;95.70;;;;;;5032605;28;19929;-60
2022/09/11 04:21:23;;;;;;;;;;;22.90;95.80;;;;;;5046437;28;20315;-56
2022/09/11 04:23:54;;;;;;;;;;;22.90;95.70;;;;;;5044510;28;19932;-58
2022/09/11 04:26:24;;;;;;;;;;;22.90;95.80;;;;;;5031771;28;19935;-58
2022/09/11 04:28:57;;;;;;;;;;;22.90;95.80;;;;;;5036748;28;19929;-56
2022/09/11 04:31:26;;;;;;;;;;;22.90;95.80;;;;;;5033559;28;20271;-58
2022/09/11 04:33:54;;;;;;;;;;;22.90;95.80;;;;;;5030576;28;19945;-57
2022/09/11 04:36:28;;;;;;;;;;;22.90;95.70;;;;;;5035622;28;20408;-57
2022/09/11 04:38:57;;;;;;;;;;;22.90;95.70;;;;;;5023210;28;19928;-56
2022/09/11 04:41:24;;;;;;;;;;;22.90;95.70;;;;;;5049477;28;19929;-58
2022/09/11 04:43:59;;;;;;;;;;;22.90;95.70;;;;;;5049113;28;19932;-59
2022/09/11 04:46:33;;;;;;;;;;;22.90;95.70;;;;;;5032023;28;20203;-56
2022/09/11 04:49:02;;;;;;;;;;;22.90;95.80;;;;;;5031775;28;19925;-56
2022/09/11 04:51:31;;;;;;;;;;;22.90;95.80;;;;;;5030829;28;19940;-58
2022/09/11 04:53:59;;;;;;;;;;;22.90;95.70;;;;;;5043327;28;19963;-58
2022/09/11 04:56:36;;;;;;;;;;;22.90;95.70;;;;;;5048076;28;20475;-58
2022/09/11 04:59:08;;;;;;;;;;;22.90;95.70;;;;;;5030040;28;19929;-58
2022/09/11 05:01:36;;;;;;;;;;;22.90;95.80;;;;;;5029127;28;20439;-58
2022/09/11 05:04:04;;;;;;;;;;;22.90;95.70;;;;;;5029498;28;19933;-57
2022/09/11 05:06:31;;;;;;;;;;;22.90;95.70;;;;;;5050010;28;20404;-54
2022/09/11 05:09:03;;;;;;;;;;;22.90;95.70;;;;;;5039092;28;19932;-61
2022/09/11 05:11:33;;;;;;;;;;;22.90;95.70;;;;;;5047273;28;19940;-55
2022/09/11 05:14:00;;;;;;;;;;;22.90;95.70;;;;;;5030394;28;19932;-54
2022/09/11 05:16:30;;;;;;;;;;;22.90;95.70;;;;;;5032583;28;19933;-57
2022/09/11 05:18:58;;;;;;;;;;;22.80;95.70;;;;;;5045393;28;20313;-59
2022/09/11 05:21:26;;;;;;;;;;;22.90;95.70;;;;;;5024757;28;19948;-57
2022/09/11 05:23:54;;;;;;;;;;;22.90;95.70;;;;;;5026521;28;19924;-56
2022/09/11 05:26:22;;;;;;;;;;;22.90;95.70;;;;;;5028108;28;19943;-55
2022/09/11 05:28:53;;;;;;;;;;;22.90;95.70;;;;;;5022443;28;19928;-55
2022/09/11 05:31:21;;;;;;;;;;;22.90;95.70;;;;;;5029804;28;19936;-56
2022/09/11 05:33:48;;;;;;;;;;;22.90;95.70;;;;;;5029360;28;19928;-58
2022/09/11 05:36:16;;;;;;;;;;;22.90;95.60;;;;;;5029405;28;19928;-56
2022/09/11 05:38:44;;;;;;;;;;;22.80;95.70;;;;;;5027549;28;19929;-58
2022/09/11 05:41:12;;;;;;;;;;;22.90;95.70;;;;;;5030768;28;19928;-58
2022/09/11 05:43:40;;;;;;;;;;;23.00;95.80;;;;;;5014092;28;19933;-56
2022/09/11 05:46:10;;;;;;;;;;;23.00;95.90;;;;;;5026817;28;19932;-60
2022/09/11 05:48:38;;;;;;;;;;;23.00;95.90;;;;;;5033588;28;19925;-57
2022/09/11 05:51:09;;;;;;;;;;;23.00;96.10;;;;;;5046449;28;20311;-56
2022/09/11 05:53:36;;;;;;;;;;;23.00;96.30;;;;;;5022758;28;20419;-55
2022/09/11 05:56:05;;;;;;;;;;;23.10;96.40;;;;;;5006733;28;19943;-59
2022/09/11 05:58:33;;;;;;;;;;;23.10;96.40;;;;;;5044678;28;21841;-54
2022/09/11 06:01:02;;;;;;;;;;;23.10;96.50;;;;;;5034639;28;19925;-64
2022/09/11 06:03:33;;;;;;;;;;;23.10;96.60;;;;;;5028169;28;19929;-64
2022/09/11 06:06:01;;;;;;;;;;;23.10;96.70;;;;;;5046014;28;19939;-63
2022/09/11 06:08:29;;;;;;;;;;;23.10;96.80;;;;;;5027742;28;19940;-61
2022/09/11 06:10:57;;;;;;;;;;;23.10;97.10;;;;;;5035118;28;19936;-58
2022/09/11 06:13:25;;;;;;;;;;;23.20;97.10;;;;;;5033577;28;20492;-60
2022/09/11 06:15:52;;;;;;;;;;;23.20;97.00;;;;;;5053573;28;20306;-64
2022/09/11 06:18:19;;;;;;;;;;;23.30;97.10;;;;;;5027244;28;19924;-64
2022/09/11 06:20:57;;;;;;;;;;;23.20;97.40;;;;;;5025756;28;19929;-59
2022/09/11 06:23:25;;;;;;;;;;;23.30;97.80;;;;;;5040896;28;20320;-58
2022/09/11 06:26:01;;;;;;;;;;;23.20;97.70;;;;;;5041105;28;19936;-57
2022/09/11 06:28:29;;;;;;;;;;;23.20;98.20;;;;;;5042559;28;19936;-61
2022/09/11 06:30:57;;;;;;;;;;;23.10;98.30;;;;;;5041611;28;19936;-61
2022/09/11 06:33:25;;;;;;;;;;;23.10;99.20;;;;;;5045395;28;20493;-61
2022/09/11 06:35:57;;;;;;;;;;;23.10;99.60;;;;;;5042207;28;19940;-62
2022/09/11 06:38:25;;;;;;;;;;;23.10;99.00;;;;;;5041732;28;19925;-63
2022/09/11 06:40:53;;;;;;;;;;;23.20;99.00;;;;;;5030193;28;19933;-61
2022/09/11 06:43:21;;;;;;;;;;;23.20;99.00;;;;;;5039383;28;19940;-63
2022/09/11 06:45:48;;;;;;;;;;;23.20;99.00;;;;;;5023671;28;20416;-56
2022/09/11 06:48:16;;;;;;;;;;;23.20;98.90;;;;;;5024101;28;20320;-56
2022/09/11 06:50:44;;;;;;;;;;;23.20;98.90;;;;;;5023978;28;19929;-58
2022/09/11 06:53:13;;;;;;;;;;;23.10;98.90;;;;;;5019610;28;19952;-61
2022/09/11 06:55:47;;;;;;;;;;;23.10;99.10;;;;;;5028629;28;20396;-56
2022/09/11 06:58:15;;;;;;;;;;;23.10;98.90;;;;;;5028532;28;20308;-59
2022/09/11 07:00:43;;;;;;;;;;;23.10;98.80;;;;;;5032106;28;20293;-57
2022/09/11 07:03:11;;;;;;;;;;;23.10;98.90;;;;;;5030248;28;19975;-55
2022/09/11 07:05:44;;;;;;;;;;;23.10;99.00;;;;;;5043791;28;19928;-62
2022/09/11 07:08:12;;;;;;;;;;;23.10;98.80;;;;;;5034550;28;19975;-62
2022/09/11 07:10:41;;;;;;;;;;;23.00;98.50;;;;;;5041065;28;19954;-62
2022/09/11 07:13:08;;;;;;;;;;;23.00;98.10;;;;;;5058956;28;19958;-63
2022/09/11 07:15:36;;;;;;;;;;;23.00;98.00;;;;;;5056177;28;20304;-63
2022/09/11 07:18:04;;;;;;;;;;;23.00;97.90;;;;;;5056637;28;19936;-63
2022/09/11 07:20:31;;;;;;;;;;;23.00;97.80;;;;;;5042742;28;20309;-62
2022/09/11 07:22:58;;;;;;;;;;;23.00;97.80;;;;;;5059407;28;19940;-64
2022/09/11 07:25:27;;;;;;;;;;;23.00;97.70;;;;;;5042320;28;20319;-63
2022/09/11 07:27:54;;;;;;;;;;;23.00;97.70;;;;;;5056137;28;19932;-65
2022/09/11 07:30:22;;;;;;;;;;;23.00;97.70;;;;;;5039283;28;19924;-63
2022/09/11 07:32:53;;;;;;;;;;;23.10;97.70;;;;;;5053142;28;19944;-63
2022/09/11 07:35:20;;;;;;;;;;;23.00;97.60;;;;;;5023492;28;19929;-62
2022/09/11 07:37:49;;;;;;;;;;;23.10;97.60;;;;;;5034117;28;19928;-62
2022/09/11 07:40:17;;;;;;;;;;;23.10;97.60;;;;;;5025469;28;20389;-58
2022/09/11 07:42:45;;;;;;;;;;;23.10;97.60;;;;;;5038353;28;19941;-63
2022/09/11 07:45:12;;;;;;;;;;;23.10;97.60;;;;;;5042750;28;19929;-61
2022/09/11 07:47:40;;;;;;;;;;;23.10;97.60;;;;;;5056174;28;19936;-63
2022/09/11 07:50:07;;;;;;;;;;;23.00;97.60;;;;;;5056109;28;19932;-64
2022/09/11 07:52:35;;;;;;;;;;;23.10;97.50;;;;;;5048066;28;20372;-63
2022/09/11 07:55:04;;;;;;;;;;;23.10;97.50;;;;;;5041270;28;19924;-63
2022/09/11 07:57:34;;;;;;;;;;;23.10;97.50;;;;;;5033718;28;19951;-65
2022/09/11 08:00:05;;;;;;;;;;;23.10;97.70;;;;;;5052828;28;19925;-62
2022/09/11 08:02:47;;;;;;;;;;;23.10;97.50;;;;;;5058738;28;19928;-62
2022/09/11 08:05:18;;;;;;;;;;;23.10;97.50;;;;;;5035606;28;19929;-64
2022/09/11 08:07:45;;;;;;;;;;;23.10;97.40;;;;;;5038372;28;19944;-59
2022/09/11 08:10:13;;;;;;;;;;;23.10;97.40;;;;;;5044788;28;19936;-59
2022/09/11 08:12:53;;;;;;;;;;;23.10;97.30;;;;;;5031061;28;19929;-60
2022/09/11 08:15:27;;;;;;;;;;;23.10;97.30;;;;;;5050726;28;19936;-61
2022/09/11 08:17:54;;;;;;;;;;;23.10;97.30;;;;;;5054992;28;19943;-64
2022/09/11 08:20:22;;;;;;;;;;;23.10;97.30;;;;;;5037472;28;19925;-60
2022/09/11 08:22:49;;;;;;;;;;;23.10;97.20;;;;;;5039416;28;19936;-62
2022/09/11 08:25:18;;;;;;;;;;;23.10;97.20;;;;;;5035194;28;19935;-63
2022/09/11 08:27:45;;;;;;;;;;;23.10;97.20;;;;;;5036678;28;19936;-63
2022/09/11 08:30:16;;;;;;;;;;;23.10;97.20;;;;;;5041444;28;19928;-63
2022/09/11 08:32:43;;;;;;;;;;;23.10;97.20;;;;;;5021635;28;20171;-61
2022/09/11 08:35:10;;;;;;;;;;;23.10;97.20;;;;;;5047829;28;19925;-63
2022/09/11 08:37:39;;;;;;;;;;;23.10;97.20;;;;;;5037088;28;19933;-65
2022/09/11 08:40:06;;;;;;;;;;;23.10;97.20;;;;;;5030821;28;20420;-64
2022/09/11 08:42:35;;;;;;;;;;;23.10;97.20;;;;;;5039648;28;19932;-59
2022/09/11 08:45:06;;;;;;;;;;;23.10;97.10;;;;;;5033541;28;19936;-61
2022/09/11 08:47:37;;;;;;;;;;;23.10;97.10;;;;;;5039249;28;19925;-62
2022/09/11 08:50:25;;;;;;;;;;;23.10;97.10;;;;;;5055346;28;19932;-65
2022/09/11 08:52:55;;;;;;;;;;;23.20;97.00;;;;;;5049066;28;19939;-60
2022/09/11 08:55:31;;;;;;;;;;;23.20;97.00;;;;;;5052630;28;19940;-63
2022/09/11 08:58:25;;;;;;;;;;;23.20;97.00;;;;;;5015950;28;19929;-63
2022/09/11 09:01:16;;;;;;;;;;;23.20;97.00;;;;;;5018276;28;19925;-61
2022/09/11 09:04:02;;;;;;;;;;;23.10;96.90;;;;;;5037739;28;19937;-60
2022/09/11 09:06:52;;;;;;;;;;;23.20;96.90;;;;;;5036220;28;19944;-62
2022/09/11 09:09:45;;;;;;;;;;;23.20;96.90;;;;;;5050784;28;19925;-63
2022/09/11 09:12:14;;;;;;;;;;;23.20;96.90;;;;;;5043635;28;19929;-61
2022/09/11 09:15:00;;;;;;;;;;;23.20;96.90;;;;;;5048486;28;19933;-62
2022/09/11 09:17:31;;;;;;;;;;;23.10;96.80;;;;;;5032392;28;19940;-63
2022/09/11 09:20:02;;;;;;;;;;;23.10;97.00;;;;;;5042684;28;19929;-63
2022/09/11 09:22:42;;;;;;;;;;;23.20;96.80;;;;;;5034763;28;19932;-61
2022/09/11 09:25:14;;;;;;;;;;;23.20;96.70;;;;;;5048867;28;19930;-63
2022/09/11 09:27:44;;;;;;;;;;;23.20;96.80;;;;;;5034319;28;20431;-63
2022/09/11 09:30:15;;;;;;;;;;;23.10;96.80;;;;;;5050369;28;19929;-62
2022/09/11 09:32:49;;;;;;;;;;;23.10;96.80;;;;;;5046661;28;19969;-62
2022/09/11 09:35:22;;;;;;;;;;;23.10;96.70;;;;;;5029385;28;20032;-60
2022/09/11 09:37:53;;;;;;;;;;;23.10;96.70;;;;;;5023121;28;19949;-61
2022/09/11 09:40:23;;;;;;;;;;;23.10;96.80;;;;;;5044992;28;19929;-61
2022/09/11 09:42:53;;;;;;;;;;;23.10;96.80;;;;;;5049027;28;19932;-61
2022/09/11 09:45:38;;;;;;;;;;;23.10;96.70;;;;;;5028183;28;19929;-62
2022/09/11 09:48:07;;;;;;;;;;;23.10;96.80;;;;;;5032204;28;20039;-61
2022/09/11 09:50:37;;;;;;;;;;;23.10;96.70;;;;;;5026113;28;19980;-63
2022/09/11 09:53:28;;;;;;;;;;;23.10;96.70;;;;;;5033392;28;19939;-62
2022/09/11 09:55:57;;;;;;;;;;;23.10;96.70;;;;;;5042704;28;20281;-61
2022/09/11 09:58:26;;;;;;;;;;;23.10;96.60;;;;;;5049611;28;19924;-61
2022/09/11 10:00:53;;;;;;;;;;;23.10;96.60;;;;;;5046980;28;19925;-63
2022/09/11 10:03:21;;;;;;;;;;;23.10;96.60;;;;;;5049959;28;20000;-62
2022/09/11 10:05:49;;;;;;;;;;;23.10;96.60;;;;;;5048337;28;19955;-59
2022/09/11 10:08:25;;;;;;;;;;;23.10;96.50;;;;;;5044818;28;19925;-60
2022/09/11 10:10:57;;;;;;;;;;;23.10;96.60;;;;;;5054277;28;19979;-59
2022/09/11 10:13:27;;;;;;;;;;;23.00;96.50;;;;;;5031027;28;19928;-64
2022/09/11 10:16:18;;;;;;;;;;;23.10;96.50;;;;;;5050491;28;19932;-64
2022/09/11 10:18:46;;;;;;;;;;;23.00;96.50;;;;;;5024454;28;19929;-63
2022/09/11 10:21:32;;;;;;;;;;;23.00;96.50;;;;;;5049136;28;19931;-61
2022/09/11 10:24:01;;;;;;;;;;;23.00;96.50;;;;;;5054304;28;19936;-62
2022/09/11 10:26:30;;;;;;;;;;;23.00;96.50;;;;;;5055507;28;19940;-60
2022/09/11 10:29:10;;;;;;;;;;;23.00;96.50;;;;;;5035952;28;19933;-59
2022/09/11 10:31:39;;;;;;;;;;;23.00;96.50;;;;;;5058259;28;19931;-61
2022/09/11 10:34:13;;;;;;;;;;;23.00;96.50;;;;;;5038077;28;20327;-59
2022/09/11 10:36:50;;;;;;;;;;;23.00;96.40;;;;;;5036233;28;19935;-62
2022/09/11 10:39:18;;;;;;;;;;;23.00;96.40;;;;;;5052434;28;19935;-63
2022/09/11 10:41:50;;;;;;;;;;;23.00;96.40;;;;;;5050923;28;19929;-62
2022/09/11 10:44:19;;;;;;;;;;;23.00;96.40;;;;;;5057548;28;20327;-59
2022/09/11 10:47:02;;;;;;;;;;;23.00;96.40;;;;;;5056583;28;19929;-63
2022/09/11 10:49:29;;;;;;;;;;;23.00;96.30;;;;;;5044133;28;19928;-63
2022/09/11 10:51:58;;;;;;;;;;;23.00;96.30;;;;;;5058086;28;20005;-60
2022/09/11 10:54:32;;;;;;;;;;;23.00;96.20;;;;;;5055812;28;19925;-61
2022/09/11 10:57:13;;;;;;;;;;;23.00;96.20;;;;;;5058742;28;19935;-61
2022/09/11 10:59:45;;;;;;;;;;;23.10;96.20;;;;;;5054831;28;19929;-63
2022/09/11 11:02:18;;;;;;;;;;;23.10;96.20;;;;;;5048889;28;19935;-63
2022/09/11 11:04:46;;;;;;;;;;;23.10;96.20;;;;;;5044191;28;20396;-62
2022/09/11 11:07:16;;;;;;;;;;;23.00;96.20;;;;;;5048745;28;20404;-63
2022/09/11 11:10:01;;;;;;;;;;;23.10;96.20;;;;;;5051062;28;19929;-63
2022/09/11 11:12:39;;;;;;;;;;;23.00;96.20;;;;;;5051708;28;19932;-59
2022/09/11 11:15:06;;;;;;;;;;;23.10;96.10;;;;;;5048111;28;19937;-61
2022/09/11 11:17:48;;;;;;;;;;;23.10;96.10;;;;;;5043394;28;19932;-60
2022/09/11 11:20:24;;;;;;;;;;;23.10;96.10;;;;;;5033766;28;19936;-63
2022/09/11 11:23:01;;;;;;;;;;;23.10;96.10;;;;;;5043747;28;19936;-62
2022/09/11 11:25:50;;;;;;;;;;;23.10;96.30;;;;;;5051723;28;20404;-63
2022/09/11 11:28:40;;;;;;;;;;;23.10;96.10;;;;;;5060659;28;19924;-61
2022/09/11 11:31:10;;;;;;;;;;;23.10;96.10;;;;;;5032211;28;19936;-60
2022/09/11 11:33:38;;;;;;;;;;;23.10;96.00;;;;;;5049321;28;19932;-60
2022/09/11 11:36:14;;;;;;;;;;;23.10;96.00;;;;;;5039422;28;19932;-61
2022/09/11 11:38:47;;;;;;;;;;;23.10;96.00;;;;;;5050808;28;19936;-62
2022/09/11 11:41:18;;;;;;;;;;;23.10;96.00;;;;;;5049460;28;19928;-62
2022/09/11 11:43:47;;;;;;;;;;;23.10;95.90;;;;;;5049508;28;19948;-61
2022/09/11 11:46:18;;;;;;;;;;;23.10;95.90;;;;;;5054039;28;20384;-62
2022/09/11 11:48:46;;;;;;;;;;;23.10;95.90;;;;;;5047783;28;19929;-62
2022/09/11 11:51:23;;;;;;;;;;;23.10;95.90;;;;;;5044280;28;19962;-62
2022/09/11 11:53:58;;;;;;;;;;;23.10;95.90;;;;;;5056966;28;20415;-61
2022/09/11 11:56:41;;;;;;;;;;;23.10;95.90;;;;;;5058605;28;19940;-61
2022/09/11 11:59:15;;;;;;;;;;;23.10;95.90;;;;;;5053827;28;20315;-61
2022/09/11 12:01:42;;;;;;;;;;;23.10;95.90;;;;;;5057799;28;20312;-63
2022/09/11 12:04:29;;;;;;;;;;;23.10;95.90;;;;;;5029925;28;19932;-62
2022/09/11 12:06:57;;;;;;;;;;;23.10;95.90;;;;;;5054269;28;19929;-60
2022/09/11 12:09:26;;;;;;;;;;;23.00;95.90;;;;;;5060339;28;19924;-59
2022/09/11 12:12:03;;;;;;;;;;;23.10;95.90;;;;;;5051485;28;19929;-62
2022/09/11 12:14:32;;;;;;;;;;;23.10;95.90;;;;;;5031494;28;19936;-61
2022/09/11 12:17:16;;;;;;;;;;;23.00;95.90;;;;;;5055866;28;19929;-63
2022/09/11 12:20:02;;;;;;;;;;;23.00;95.90;;;;;;5050774;28;19928;-63
2022/09/11 12:22:37;;;;;;;;;;;23.10;95.80;;;;;;5057136;28;19935;-64
2022/09/11 12:25:24;;;;;;;;;;;23.10;95.80;;;;;;5058492;28;19929;-62
2022/09/11 12:27:52;;;;;;;;;;;23.10;95.80;;;;;;5059154;28;19936;-63
2022/09/11 12:30:22;;;;;;;;;;;23.10;95.80;;;;;;5054299;28;19932;-61
2022/09/11 12:32:50;;;;;;;;;;;23.10;95.70;;;;;;5047475;28;19928;-62
2022/09/11 12:35:40;;;;;;;;;;;23.10;95.70;;;;;;5047739;28;19925;-61
2022/09/11 12:38:07;;;;;;;;;;;23.10;95.70;;;;;;5060273;22;19951;-62
2022/09/11 12:40:38;;;;;;;;;;;23.10;95.70;;;;;;5028047;28;19928;-62
2022/09/11 12:43:17;;;;;;;;;;;23.10;95.70;;;;;;5012421;28;19936;-60
2022/09/11 12:45:48;;;;;;;;;;;23.10;95.60;;;;;;5035724;28;19925;-61
2022/09/11 12:48:16;;;;;;;;;;;23.10;95.60;;;;;;5044493;28;20396;-61
2022/09/11 12:50:52;;;;;;;;;;;23.20;95.50;;;;;;5039678;28;19936;-61
2022/09/11 12:53:25;;;;;;;;;;;23.20;95.50;;;;;;5043085;28;19929;-62
2022/09/11 12:56:00;;;;;;;;;;;23.20;95.40;;;;;;5034370;28;19928;-60
2022/09/11 12:58:30;;;;;;;;;;;23.20;95.40;;;;;;5049856;28;19926;-60
2022/09/11 13:01:05;;;;;;;;;;;23.20;95.50;;;;;;5044022;28;19925;-61
2022/09/11 13:03:33;;;;;;;;;;;23.20;95.50;;;;;;5024909;28;19925;-63
2022/09/11 13:06:02;;;;;;;;;;;23.20;95.50;;;;;;5045912;28;19925;-61
2022/09/11 13:08:33;;;;;;;;;;;23.20;95.50;;;;;;5031674;28;20422;-62
2022/09/11 13:11:18;;;;;;;;;;;23.20;95.50;;;;;;5041311;28;20407;-60
2022/09/11 13:13:46;;;;;;;;;;;23.20;95.50;;;;;;5035849;28;19948;-63
2022/09/11 13:16:17;;;;;;;;;;;23.20;95.40;;;;;;5046874;28;19952;-63
2022/09/11 13:18:45;;;;;;;;;;;23.20;95.40;;;;;;5049473;28;19924;-61
2022/09/11 13:21:13;;;;;;;;;;;23.20;95.40;;;;;;5043411;28;19929;-65
2022/09/11 13:23:41;;;;;;;;;;;23.20;95.40;;;;;;5048694;28;19935;-63
2022/09/11 13:26:14;;;;;;;;;;;23.20;95.40;;;;;;5044754;28;20011;-60
2022/09/11 13:28:43;;;;;;;;;;;23.20;95.40;;;;;;5042991;28;20340;-61
2022/09/11 13:31:15;;;;;;;;;;;23.20;95.30;;;;;;5047214;28;20330;-64
2022/09/11 13:33:48;;;;;;;;;;;23.20;95.30;;;;;;5046076;28;19931;-61
2022/09/11 13:36:15;;;;;;;;;;;23.20;95.30;;;;;;5047728;28;19951;-62
2022/09/11 13:38:43;;;;;;;;;;;23.20;95.40;;;;;;5040497;28;19925;-61
2022/09/11 13:41:15;;;;;;;;;;;23.10;95.40;;;;;;5029467;28;19929;-60
2022/09/11 13:43:47;;;;;;;;;;;23.10;95.40;;;;;;5047745;28;19924;-62
2022/09/11 13:46:14;;;;;;;;;;;23.10;95.30;;;;;;5043759;28;19929;-64
2022/09/11 13:48:43;;;;;;;;;;;23.10;95.30;;;;;;5027751;28;20408;-61
2022/09/11 13:51:11;;;;;;;;;;;23.10;95.30;;;;;;5039000;28;19925;-56
2022/09/11 13:53:39;;;;;;;;;;;23.10;95.40;;;;;;5045707;28;19936;-61
2022/09/11 13:56:20;;;;;;;;;;;23.10;95.30;;;;;;5047298;28;20320;-59
2022/09/11 13:58:47;;;;;;;;;;;23.10;95.50;;;;;;5044045;28;19929;-64
2022/09/11 14:01:19;;;;;;;;;;;23.20;95.20;;;;;;5047672;28;19935;-61
2022/09/11 14:03:47;;;;;;;;;;;23.30;95.20;;;;;;5052374;28;19933;-61
2022/09/11 14:06:15;;;;;;;;;;;23.40;95.10;;;;;;5032720;28;19952;-60
2022/09/11 14:08:48;;;;;;;;;;;23.50;95.00;;;;;;5046769;28;20282;-59
2022/09/11 14:11:21;;;;;;;;;;;23.50;94.80;;;;;;5030043;28;19929;-61
2022/09/11 14:13:52;;;;;;;;;;;23.60;94.70;;;;;;5047989;28;19928;-63
2022/09/11 14:16:24;;;;;;;;;;;23.70;94.60;;;;;;5040201;28;19951;-61
2022/09/11 14:18:54;;;;;;;;;;;23.80;94.50;;;;;;5046046;28;19928;-62
2022/09/11 14:21:22;;;;;;;;;;;23.80;94.40;;;;;;5043128;28;20315;-61
2022/09/11 14:23:51;;;;;;;;;;;23.80;94.40;;;;;;5030434;28;19929;-62
2022/09/11 14:26:20;;;;;;;;;;;23.90;94.30;;;;;;5049772;28;19951;-61
2022/09/11 14:28:55;;;;;;;;;;;23.90;94.30;;;;;;5031364;28;19932;-61
2022/09/11 14:31:29;;;;;;;;;;;23.90;94.20;;;;;;5029486;28;19929;-62
2022/09/11 14:34:02;;;;;;;;;;;23.90;94.20;;;;;;5026617;28;19929;-62
2022/09/11 14:36:29;;;;;;;;;;;23.90;94.20;;;;;;5048169;28;19929;-62
2022/09/11 14:38:57;;;;;;;;;;;23.90;94.20;;;;;;5030894;28;19951;-63
2022/09/11 14:41:24;;;;;;;;;;;23.90;94.10;;;;;;5045413;28;19952;-61